Time;durP1;ratioP1;P1;durP2;ratioP2;P2;SDS_P1;SDS_P2;PMS_P1;PMS_P2;Temp;Humidity;BMP_temperature;BMP_pressure;BME280_temperature;BME280_humidity;BME280_pressure;Samples;Min_cycle;Max_cycle;Signal;HPM_P1;HPM_P2
2022/03/07 00:01:58;;;;;;;13.70;12.07;;;0.30;99.90;;;;;;4991560;28;20137;-79
2022/03/07 00:04:24;;;;;;;12.87;10.90;;;0.20;99.90;;;;;;4983138;28;20117;-78
2022/03/07 00:06:50;;;;;;;12.57;11.27;;;0.30;99.90;;;;;;4978940;28;20400;-78
2022/03/07 00:09:16;;;;;;;12.23;11.03;;;0.20;99.90;;;;;;4971372;28;20057;-78
2022/03/07 00:11:42;;;;;;;12.53;11.00;;;0.30;99.90;;;;;;4997004;28;20049;-78
2022/03/07 00:14:08;;;;;;;11.90;10.57;;;0.30;99.90;;;;;;4988140;28;20050;-77
2022/03/07 00:16:35;;;;;;;13.60;10.20;;;0.30;99.90;;;;;;4984483;28;20052;-77
2022/03/07 00:19:01;;;;;;;13.63;11.53;;;0.40;99.90;;;;;;4974808;28;20500;-77
2022/03/07 00:21:27;;;;;;;13.53;12.00;;;0.40;99.90;;;;;;4972207;28;20085;-80
2022/03/07 00:23:53;;;;;;;11.37;10.17;;;0.40;99.90;;;;;;4985332;28;20050;-81
2022/03/07 00:26:19;;;;;;;11.93;10.70;;;0.40;99.90;;;;;;4988284;28;20516;-81
2022/03/07 00:28:46;;;;;;;12.90;10.63;;;0.40;99.90;;;;;;4984538;28;20058;-80
2022/03/07 00:31:12;;;;;;;13.67;11.93;;;0.40;99.90;;;;;;5003081;28;20045;-80
2022/03/07 00:33:38;;;;;;;11.30;9.87;;;0.40;99.90;;;;;;4976520;28;20039;-81
2022/03/07 00:36:05;;;;;;;10.63;9.50;;;0.40;99.90;;;;;;4974847;28;20077;-81
2022/03/07 00:38:31;;;;;;;12.30;10.20;;;0.30;99.90;;;;;;4994194;28;20558;-81
2022/03/07 00:40:58;;;;;;;11.67;10.33;;;0.30;99.90;;;;;;4982764;28;20050;-81
2022/03/07 00:43:24;;;;;;;14.20;11.27;;;0.30;99.90;;;;;;4981558;28;20398;-81
2022/03/07 00:45:50;;;;;;;14.27;12.17;;;0.30;99.90;;;;;;5006246;28;20804;-81
2022/03/07 00:48:16;;;;;;;12.60;11.07;;;0.30;99.90;;;;;;4986426;28;20054;-81
2022/03/07 00:50:47;;;;;;;12.23;10.97;;;0.20;99.90;;;;;;4996683;28;20107;-81
2022/03/07 00:53:16;;;;;;;14.03;12.70;;;0.10;99.90;;;;;;4981214;28;20046;-81
2022/03/07 00:55:42;;;;;;;12.87;11.57;;;0.10;99.90;;;;;;4999329;28;20104;-81
2022/03/07 00:58:08;;;;;;;13.60;12.20;;;0.00;99.90;;;;;;4989493;28;20041;-81
2022/03/07 01:00:35;;;;;;;20.37;16.50;;;0.00;99.90;;;;;;4995030;28;20046;-81
2022/03/07 01:03:02;;;;;;;14.90;13.17;;;0.00;99.90;;;;;;4979124;28;20050;-81
2022/03/07 01:05:27;;;;;;;13.93;12.30;;;0.10;99.90;;;;;;4978498;28;20038;-79
2022/03/07 01:07:53;;;;;;;18.57;14.87;;;0.00;99.90;;;;;;5005921;28;20050;-81
2022/03/07 01:10:19;;;;;;;18.30;16.17;;;-0.10;99.90;;;;;;4970027;28;20100;-81
2022/03/07 01:12:45;;;;;;;16.37;14.60;;;-0.10;99.90;;;;;;4974349;28;20077;-79
2022/03/07 01:15:10;;;;;;;15.83;14.20;;;-0.20;99.90;;;;;;4996391;28;20050;-77
2022/03/07 01:17:37;;;;;;;17.43;15.63;;;-0.20;99.90;;;;;;4991084;28;20060;-77
2022/03/07 01:20:06;;;;;;;15.93;14.33;;;-0.10;99.90;;;;;;4994602;28;20090;-77
2022/03/07 01:22:32;;;;;;;16.23;14.40;;;-0.20;99.90;;;;;;4985096;28;20054;-77
2022/03/07 01:24:58;;;;;;;18.13;15.07;;;-0.30;99.90;;;;;;5008751;28;20097;-77
2022/03/07 01:27:24;;;;;;;18.87;16.87;;;-0.30;99.90;;;;;;4968622;28;20117;-77
2022/03/07 01:29:49;;;;;;;16.50;14.73;;;-0.30;99.90;;;;;;4998047;28;20060;-76
2022/03/07 01:32:15;;;;;;;16.57;14.97;;;-0.30;99.90;;;;;;4985036;28;20708;-77
2022/03/07 01:34:41;;;;;;;16.77;14.40;;;-0.30;99.90;;;;;;4993440;28;20568;-77
2022/03/07 01:37:07;;;;;;;16.40;14.67;;;-0.30;99.90;;;;;;4984688;28;20069;-77
2022/03/07 01:39:36;;;;;;;17.23;14.53;;;-0.30;99.90;;;;;;4977741;28;20128;-77
2022/03/07 01:42:03;;;;;;;16.17;14.47;;;-0.30;99.90;;;;;;4975050;28;20485;-77
2022/03/07 01:44:29;;;;;;;17.00;14.60;;;-0.30;99.90;;;;;;4995614;28;20457;-78
2022/03/07 01:46:56;;;;;;;15.40;13.73;;;-0.40;99.90;;;;;;4994944;28;20057;-79
2022/03/07 01:49:23;;;;;;;17.57;15.87;;;-0.40;99.90;;;;;;4973630;28;20073;-79
2022/03/07 01:51:53;;;;;;;23.30;19.73;;;-0.40;99.90;;;;;;4993692;28;20489;-78
2022/03/07 01:54:20;;;;;;;20.73;17.37;;;-0.40;99.90;;;;;;4978445;28;20060;-78
2022/03/07 01:56:48;;;;;;;17.63;15.63;;;-0.60;99.90;;;;;;4975506;28;20416;-78
2022/03/07 01:59:17;;;;;;;16.63;14.93;;;-0.60;99.90;;;;;;4988906;28;20038;-78
2022/03/07 02:01:43;;;;;;;15.70;14.10;;;-0.70;99.90;;;;;;4993023;28;20038;-78
2022/03/07 02:04:10;;;;;;;17.93;16.03;;;-0.60;99.90;;;;;;4991405;28;20045;-78
2022/03/07 02:06:39;;;;;;;16.53;14.77;;;-0.70;99.90;;;;;;4973413;28;20066;-78
2022/03/07 02:09:07;;;;;;;16.70;15.10;;;-0.60;99.90;;;;;;4968875;28;20057;-78
2022/03/07 02:11:34;;;;;;;15.60;13.80;;;-0.60;99.90;;;;;;4974646;28;20052;-78
2022/03/07 02:14:34;;;;;;;17.87;14.30;;;-0.60;99.90;;;;;;4972730;28;20042;-78
2022/03/07 02:17:00;;;;;;;16.60;14.90;;;-0.60;99.90;;;;;;4979613;28;20057;-78
2022/03/07 02:19:26;;;;;;;17.83;16.10;;;-0.70;99.90;;;;;;4968102;28;20699;-78
2022/03/07 02:22:00;;;;;;;17.00;15.23;;;-0.70;99.90;;;;;;4990843;28;20053;-78
2022/03/07 02:24:26;;;;;;;16.37;14.63;;;-0.70;99.90;;;;;;4985318;28;20038;-78
2022/03/07 02:27:06;;;;;;;18.17;16.27;;;-0.80;99.90;;;;;;4974023;28;20061;-78
2022/03/07 02:29:32;;;;;;;18.13;15.40;;;-0.80;99.90;;;;;;4969262;28;20064;-76
2022/03/07 02:31:59;;;;;;;18.80;16.80;;;-0.70;99.90;;;;;;4988210;28;20034;-76
2022/03/07 02:34:25;;;;;;;20.77;17.73;;;-0.80;99.90;;;;;;4991612;28;20042;-76
2022/03/07 02:36:51;;;;;;;19.97;17.83;;;-0.80;99.90;;;;;;4979180;28;20070;-77
2022/03/07 02:39:17;;;;;;;19.00;17.00;;;-0.80;99.90;;;;;;4991890;28;20876;-77
2022/03/07 02:41:44;;;;;;;20.73;18.63;;;-0.90;99.90;;;;;;4985720;28;20054;-77
2022/03/07 02:44:10;;;;;;;21.10;19.00;;;-0.90;99.90;;;;;;4995476;28;20107;-77
2022/03/07 02:46:36;;;;;;;19.13;17.23;;;-0.90;99.90;;;;;;4988927;28;20523;-77
2022/03/07 02:49:02;;;;;;;19.50;17.40;;;-1.00;99.90;;;;;;4991134;28;20062;-77
2022/03/07 02:51:28;;;;;;;17.30;15.50;;;-1.00;99.90;;;;;;4974090;28;20084;-77
2022/03/07 02:53:54;;;;;;;17.63;15.93;;;-1.00;99.90;;;;;;4968103;28;20113;-77
2022/03/07 02:56:20;;;;;;;20.70;17.53;;;-1.00;99.90;;;;;;4969062;28;20054;-75
2022/03/07 02:58:46;;;;;;;16.57;14.87;;;-1.00;99.90;;;;;;4992206;28;20068;-75
2022/03/07 03:01:11;;;;;;;20.17;17.93;;;-1.10;99.90;;;;;;4979750;28;20141;-75
2022/03/07 03:03:37;;;;;;;18.63;16.63;;;-1.10;99.90;;;;;;4972712;28;20108;-76
2022/03/07 03:06:03;;;;;;;17.40;15.50;;;-1.10;99.90;;;;;;4973681;28;20145;-76
2022/03/07 03:08:29;;;;;;;18.10;15.57;;;-1.10;99.90;;;;;;4990116;28;21599;-75
2022/03/07 03:10:57;;;;;;;16.77;15.07;;;-1.10;99.90;;;;;;4956280;28;20050;-76
2022/03/07 03:13:24;;;;;;;17.00;15.40;;;-1.20;99.90;;;;;;4972032;28;20054;-75
2022/03/07 03:15:51;;;;;;;16.53;14.83;;;-1.30;99.90;;;;;;4972031;28;20058;-76
2022/03/07 03:18:18;;;;;;;16.37;14.63;;;-1.30;99.90;;;;;;4987994;28;20087;-75
2022/03/07 03:20:46;;;;;;;18.70;16.80;;;-1.30;99.90;;;;;;4971269;28;20058;-75
2022/03/07 03:23:13;;;;;;;16.60;14.90;;;-1.30;99.90;;;;;;4971416;28;20063;-76
2022/03/07 03:25:39;;;;;;;18.23;16.33;;;-1.20;99.90;;;;;;4990533;28;20041;-75
2022/03/07 03:28:06;;;;;;;16.33;14.63;;;-1.30;99.90;;;;;;4971528;28;20050;-76
2022/03/07 03:30:32;;;;;;;20.60;18.43;;;-1.30;99.90;;;;;;4987326;28;20496;-74
2022/03/07 03:32:58;;;;;;;25.80;21.30;;;-1.40;99.90;;;;;;4972377;28;20044;-74
2022/03/07 03:35:25;;;;;;;33.90;28.10;;;-1.40;99.90;;;;;;4972960;28;20034;-74
2022/03/07 03:37:51;;;;;;;29.63;24.53;;;-1.50;99.90;;;;;;4977391;28;20049;-74
2022/03/07 03:40:17;;;;;;;19.63;17.60;;;-1.50;99.90;;;;;;4974472;28;20048;-75
2022/03/07 03:42:43;;;;;;;19.27;17.23;;;-1.50;99.90;;;;;;4974644;28;20441;-74
2022/03/07 03:45:10;;;;;;;18.77;16.87;;;-1.60;99.90;;;;;;4990935;28;20046;-74
2022/03/07 03:47:37;;;;;;;19.37;17.13;;;-1.60;99.90;;;;;;4987047;28;20228;-74
2022/03/07 03:50:05;;;;;;;19.30;17.27;;;-1.50;99.90;;;;;;4990474;28;20085;-75
2022/03/07 03:52:32;;;;;;;18.93;17.00;;;-1.50;99.90;;;;;;5006362;28;20042;-74
2022/03/07 03:54:57;;;;;;;18.53;16.40;;;-1.50;99.90;;;;;;4990051;28;20050;-74
2022/03/07 03:57:24;;;;;;;18.73;16.73;;;-1.50;99.90;;;;;;4987617;28;20425;-74
2022/03/07 03:59:49;;;;;;;20.93;18.63;;;-1.40;99.90;;;;;;4997135;28;20144;-74
2022/03/07 04:02:16;;;;;;;21.07;18.70;;;-1.50;99.90;;;;;;5001446;28;20073;-75
2022/03/07 04:04:42;;;;;;;19.40;16.57;;;-1.50;99.90;;;;;;4983041;28;20058;-74
2022/03/07 04:07:07;;;;;;;20.00;17.73;;;-1.50;99.90;;;;;;4994845;28;20050;-75
2022/03/07 04:09:34;;;;;;;17.47;15.67;;;-1.60;99.90;;;;;;4987797;28;20097;-75
2022/03/07 04:12:00;;;;;;;17.27;15.53;;;-1.60;99.90;;;;;;5007167;28;20041;-75
2022/03/07 04:14:26;;;;;;;21.13;17.23;;;-1.60;99.90;;;;;;5007396;28;20578;-75
2022/03/07 04:16:53;;;;;;;20.07;17.67;;;-1.60;99.90;;;;;;4977909;28;20054;-75
2022/03/07 04:19:19;;;;;;;21.00;16.70;;;-1.60;99.90;;;;;;4971039;28;20054;-75
2022/03/07 04:21:45;;;;;;;17.87;16.03;;;-1.60;99.90;;;;;;4987273;28;20509;-75
2022/03/07 04:24:12;;;;;;;19.03;17.13;;;-1.60;99.90;;;;;;4985753;28;20132;-75
2022/03/07 04:26:42;;;;;;;16.87;15.07;;;-1.60;99.90;;;;;;4970880;28;20042;-75
2022/03/07 04:29:08;;;;;;;17.70;16.00;;;-1.60;99.90;;;;;;4966302;28;20049;-75
2022/03/07 04:31:40;;;;;;;18.57;16.57;;;-1.60;99.90;;;;;;4969149;28;20057;-73
2022/03/07 04:34:07;;;;;;;23.63;19.17;;;-1.50;99.90;;;;;;4982329;28;20053;-74
2022/03/07 04:36:35;;;;;;;17.60;15.63;;;-1.60;99.90;;;;;;4986195;28;20047;-73
2022/03/07 04:39:02;;;;;;;18.23;16.37;;;-1.60;99.90;;;;;;5003737;28;20567;-73
2022/03/07 04:41:28;;;;;;;19.77;16.90;;;-1.60;99.90;;;;;;4989834;28;20042;-73
2022/03/07 04:43:54;;;;;;;18.60;16.63;;;-1.60;99.90;;;;;;5006848;28;20057;-73
2022/03/07 04:46:20;;;;;;;22.37;19.63;;;-1.60;99.90;;;;;;5006022;28;20038;-73
2022/03/07 04:48:46;;;;;;;22.10;19.23;;;-1.60;99.90;;;;;;5006492;28;20068;-74
2022/03/07 04:51:15;;;;;;;21.63;19.53;;;-1.70;99.90;;;;;;5005681;28;20064;-73
2022/03/07 04:53:41;;;;;;;24.53;21.93;;;-1.70;99.90;;;;;;5005913;28;20522;-74
2022/03/07 04:56:07;;;;;;;28.20;24.97;;;-1.70;99.90;;;;;;4973480;28;20046;-73
2022/03/07 04:58:33;;;;;;;27.10;24.33;;;-1.70;99.90;;;;;;4993170;28;20038;-74
2022/03/07 05:01:00;;;;;;;25.87;22.57;;;-1.70;99.90;;;;;;4996977;28;20526;-73
2022/03/07 05:03:29;;;;;;;26.27;22.27;;;-1.70;99.90;;;;;;4988464;28;20054;-74
2022/03/07 05:05:57;;;;;;;24.50;21.47;;;-1.60;99.90;;;;;;4990113;28;20706;-74
2022/03/07 05:08:23;;;;;;;22.67;19.37;;;-1.60;99.90;;;;;;5004467;28;20590;-74
2022/03/07 05:10:49;;;;;;;25.17;22.47;;;-1.60;99.90;;;;;;4994495;28;20237;-74
2022/03/07 05:13:18;;;;;;;22.20;19.87;;;-1.60;99.90;;;;;;4969283;28;20042;-74
2022/03/07 05:15:44;;;;;;;25.63;23.00;;;-1.60;99.90;;;;;;4962010;28;20073;-74
2022/03/07 05:18:10;;;;;;;30.67;24.47;;;-1.60;99.90;;;;;;4993334;28;20049;-75
2022/03/07 05:20:36;;;;;;;29.70;24.30;;;-1.60;99.90;;;;;;4991936;28;20057;-74
2022/03/07 05:23:01;;;;;;;27.13;23.63;;;-1.60;99.90;;;;;;4994467;28;20046;-75
2022/03/07 05:25:27;;;;;;;24.20;20.00;;;-1.80;99.90;;;;;;4994255;28;20046;-75
2022/03/07 05:27:53;;;;;;;23.40;20.83;;;-1.80;99.90;;;;;;4980060;28;20107;-75
2022/03/07 05:30:22;;;;;;;25.13;20.33;;;-1.80;99.90;;;;;;4992319;28;20077;-75
2022/03/07 05:32:50;;;;;;;29.00;23.70;;;-1.80;99.90;;;;;;4992422;28;20049;-75
2022/03/07 05:35:19;;;;;;;23.57;20.93;;;-1.70;99.90;;;;;;4996164;28;21563;-75
2022/03/07 05:37:45;;;;;;;28.17;24.50;;;-1.80;99.90;;;;;;4972429;28;20137;-75
2022/03/07 05:40:12;;;;;;;28.73;24.33;;;-1.70;99.90;;;;;;4996536;28;20129;-75
2022/03/07 05:42:39;;;;;;;22.23;20.03;;;-1.80;99.90;;;;;;4967646;28;20050;-75
2022/03/07 05:45:08;;;;;;;20.27;18.17;;;-1.70;99.90;;;;;;4967643;28;20122;-74
2022/03/07 05:47:34;;;;;;;26.70;23.07;;;-1.70;99.90;;;;;;4983602;28;20051;-74
2022/03/07 05:50:00;;;;;;;33.00;27.13;;;-1.70;99.90;;;;;;4970147;28;20121;-74
2022/03/07 05:52:29;;;;;;;22.30;19.90;;;-1.70;99.90;;;;;;4986811;28;20041;-74
2022/03/07 05:54:58;;;;;;;24.87;22.33;;;-1.70;99.90;;;;;;4998482;28;20374;-74
2022/03/07 05:57:24;;;;;;;23.63;21.13;;;-1.70;99.90;;;;;;4978722;28;20042;-75
2022/03/07 05:59:49;;;;;;;24.60;21.63;;;-1.70;99.90;;;;;;4972946;28;20053;-75
2022/03/07 06:02:15;;;;;;;24.00;20.83;;;-1.70;99.90;;;;;;4989064;28;20074;-74
2022/03/07 06:04:42;;;;;;;28.73;25.33;;;-1.70;99.90;;;;;;4945143;28;20042;-74
2022/03/07 06:07:08;;;;;;;24.87;21.93;;;-1.60;99.90;;;;;;4971072;28;20133;-75
2022/03/07 06:09:33;;;;;;;26.00;23.23;;;-1.60;99.90;;;;;;4986126;28;20766;-75
2022/03/07 06:11:59;;;;;;;27.73;24.83;;;-1.60;99.90;;;;;;4982909;28;20045;-75
2022/03/07 06:14:28;;;;;;;35.53;31.60;;;-1.50;99.90;;;;;;4997985;28;20058;-75
2022/03/07 06:16:53;;;;;;;40.20;35.13;;;-1.50;99.90;;;;;;4995777;28;20604;-74
2022/03/07 06:19:19;;;;;;;37.97;33.57;;;-1.40;99.90;;;;;;4974181;28;20054;-74
2022/03/07 06:21:45;;;;;;;43.40;35.00;;;-1.40;99.90;;;;;;4969951;28;20060;-74
2022/03/07 06:24:11;;;;;;;35.40;31.03;;;-1.30;99.90;;;;;;4984597;28;20062;-75
2022/03/07 06:26:37;;;;;;;37.40;33.40;;;-1.20;99.90;;;;;;4999473;28;20069;-74
2022/03/07 06:29:03;;;;;;;37.93;33.43;;;-1.30;99.90;;;;;;4984847;28;20129;-74
2022/03/07 06:31:29;;;;;;;40.63;34.17;;;-1.10;99.90;;;;;;4965371;28;20050;-74
2022/03/07 06:33:55;;;;;;;39.47;32.93;;;-1.20;99.90;;;;;;4966706;28;20112;-74
2022/03/07 06:36:21;;;;;;;41.23;33.97;;;-1.10;99.90;;;;;;4956825;28;20053;-75
2022/03/07 06:38:46;;;;;;;35.37;31.60;;;-1.00;99.90;;;;;;4972468;28;20092;-74
2022/03/07 06:41:12;;;;;;;40.57;35.97;;;-1.00;99.90;;;;;;4973053;28;20115;-75
2022/03/07 06:43:39;;;;;;;41.90;36.07;;;-0.90;99.90;;;;;;4990160;28;20442;-76
2022/03/07 06:46:05;;;;;;;46.17;37.77;;;-0.90;99.90;;;;;;4967797;28;20191;-75
2022/03/07 06:48:31;;;;;;;28.03;25.03;;;-0.80;99.90;;;;;;4986941;28;20551;-76
2022/03/07 06:50:57;;;;;;;39.17;32.97;;;-0.80;99.90;;;;;;4989068;28;20042;-76
2022/03/07 06:53:23;;;;;;;38.07;34.17;;;-0.80;99.90;;;;;;4984062;28;20045;-74
2022/03/07 06:55:48;;;;;;;29.13;26.17;;;-0.80;99.90;;;;;;4980981;28;20061;-76
2022/03/07 06:58:14;;;;;;;29.73;26.70;;;-0.70;99.90;;;;;;4990001;28;20135;-76
2022/03/07 07:00:40;;;;;;;31.03;27.83;;;-0.70;99.90;;;;;;4984495;28;20129;-77
2022/03/07 07:03:06;;;;;;;30.97;27.83;;;-0.60;99.90;;;;;;4995137;28;20464;-77
2022/03/07 07:05:32;;;;;;;38.53;34.40;;;-0.50;99.90;;;;;;4966399;28;20192;-77
2022/03/07 07:07:59;;;;;;;28.50;25.67;;;-0.40;99.90;;;;;;4959473;28;20136;-77
2022/03/07 07:10:25;;;;;;;28.23;25.33;;;-0.30;99.90;;;;;;4982584;28;20803;-77
2022/03/07 07:12:52;;;;;;;34.53;30.83;;;-0.30;99.90;;;;;;4983619;28;20038;-75
2022/03/07 07:15:18;;;;;;;32.57;29.17;;;-0.30;99.90;;;;;;4948593;28;20045;-78
2022/03/07 07:17:44;;;;;;;29.50;26.43;;;-0.20;99.90;;;;;;4980953;28;20043;-76
2022/03/07 07:20:11;;;;;;;29.33;26.37;;;-0.20;99.90;;;;;;4983727;28;20398;-76
2022/03/07 07:22:37;;;;;;;29.67;26.77;;;-0.10;99.90;;;;;;5014821;28;20046;-76
2022/03/07 07:25:05;;;;;;;28.73;25.80;;;0.00;99.90;;;;;;4981033;28;20065;-76
2022/03/07 07:27:31;;;;;;;31.17;28.03;;;0.10;99.90;;;;;;4966007;28;20058;-77
2022/03/07 07:29:57;;;;;;;31.00;27.87;;;0.20;99.90;;;;;;5003831;28;20057;-78
2022/03/07 07:32:23;;;;;;;32.83;29.27;;;0.30;99.90;;;;;;4979195;28;20039;-76
2022/03/07 07:34:49;;;;;;;31.63;28.27;;;0.40;99.90;;;;;;4986548;28;20262;-75
2022/03/07 07:37:15;;;;;;;32.30;28.97;;;0.50;99.90;;;;;;4934040;28;20137;-76
2022/03/07 07:39:40;;;;;;;30.77;27.67;;;0.60;99.90;;;;;;4975917;28;20090;-75
2022/03/07 07:42:07;;;;;;;30.77;27.40;;;0.80;99.90;;;;;;4983919;28;20042;-76
2022/03/07 07:44:33;;;;;;;30.80;27.57;;;0.90;99.90;;;;;;4969242;28;20046;-76
2022/03/07 07:46:59;;;;;;;29.47;26.27;;;1.00;99.90;;;;;;4968283;28;20044;-77
2022/03/07 07:49:25;;;;;;;31.73;28.53;;;1.10;99.90;;;;;;4983375;28;20133;-76
2022/03/07 07:51:51;;;;;;;28.97;26.10;;;1.20;99.90;;;;;;4992366;28;20104;-76
2022/03/07 07:54:17;;;;;;;29.13;26.33;;;1.30;99.90;;;;;;5007720;28;20074;-76
2022/03/07 07:56:43;;;;;;;29.90;26.90;;;1.30;99.90;;;;;;4975775;28;20048;-76
2022/03/07 07:59:10;;;;;;;29.53;26.60;;;1.50;99.90;;;;;;4984084;28;20066;-76
2022/03/07 08:01:36;;;;;;;30.70;27.57;;;1.60;99.90;;;;;;4983977;28;20128;-76
2022/03/07 08:04:02;;;;;;;30.00;26.83;;;1.70;99.90;;;;;;4995457;28;20050;-76
2022/03/07 08:06:28;;;;;;;27.83;25.03;;;1.70;99.90;;;;;;4996285;28;20521;-76
2022/03/07 08:08:54;;;;;;;27.17;24.47;;;1.80;99.90;;;;;;4985532;28;20046;-75
2022/03/07 08:11:20;;;;;;;27.20;24.50;;;2.00;99.90;;;;;;5004272;28;20200;-76
2022/03/07 08:13:46;;;;;;;25.83;23.30;;;2.20;99.90;;;;;;4977724;28;20119;-76
2022/03/07 08:16:12;;;;;;;24.13;21.73;;;2.40;99.90;;;;;;4993478;28;20057;-76
2022/03/07 08:18:37;;;;;;;21.53;19.33;;;2.50;99.90;;;;;;4990378;28;20069;-76
2022/03/07 08:21:03;;;;;;;20.60;18.60;;;2.80;99.90;;;;;;4985694;28;20158;-76
2022/03/07 08:23:29;;;;;;;19.40;17.50;;;3.10;99.90;;;;;;4984737;28;20081;-76
2022/03/07 08:25:57;;;;;;;20.93;17.27;;;3.30;99.90;;;;;;4997935;28;20100;-75
2022/03/07 08:28:24;;;;;;;17.13;15.30;;;3.60;99.90;;;;;;4993160;28;20427;-76
2022/03/07 08:30:50;;;;;;;16.67;15.07;;;3.80;99.90;;;;;;4987901;28;20030;-76
2022/03/07 08:33:16;;;;;;;15.83;14.13;;;4.10;99.90;;;;;;5003471;28;20673;-76
2022/03/07 08:35:42;;;;;;;15.77;13.47;;;4.30;99.90;;;;;;4984730;28;20045;-75
2022/03/07 08:38:08;;;;;;;14.10;12.63;;;4.40;99.90;;;;;;4985811;28;20105;-74
2022/03/07 08:40:34;;;;;;;13.87;12.40;;;4.50;99.90;;;;;;5002248;28;20066;-75
2022/03/07 08:42:59;;;;;;;13.43;12.03;;;4.70;99.90;;;;;;5000559;28;20448;-76
2022/03/07 08:45:26;;;;;;;13.30;10.70;;;4.60;99.90;;;;;;5000543;28;20072;-76
2022/03/07 08:47:52;;;;;;;14.93;12.57;;;4.70;99.90;;;;;;4997544;28;20085;-76
2022/03/07 08:50:18;;;;;;;15.70;13.47;;;4.80;99.90;;;;;;5000051;28;20060;-75
2022/03/07 08:52:46;;;;;;;15.67;13.93;;;4.90;99.90;;;;;;5000466;28;20050;-76
2022/03/07 08:55:12;;;;;;;16.37;14.30;;;5.00;99.90;;;;;;5001018;28;20293;-76
2022/03/07 08:57:39;;;;;;;17.93;15.40;;;5.10;99.90;;;;;;4972907;28;20109;-76
2022/03/07 09:00:10;;;;;;;15.87;14.27;;;5.20;99.90;;;;;;4981930;28;20068;-76
2022/03/07 09:02:36;;;;;;;18.63;16.07;;;5.30;99.90;;;;;;4992082;28;20057;-76
2022/03/07 09:05:03;;;;;;;16.30;14.07;;;5.40;99.90;;;;;;5004117;28;20046;-76
2022/03/07 09:07:28;;;;;;;15.57;12.70;;;5.40;99.90;;;;;;4995652;28;20147;-76
2022/03/07 09:09:58;;;;;;;18.67;12.73;;;5.40;99.90;;;;;;4949430;28;20050;-76
2022/03/07 09:12:27;;;;;;;12.80;10.70;;;5.50;99.90;;;;;;4984362;28;20042;-76
2022/03/07 09:15:06;;;;;;;12.97;9.37;;;5.50;99.90;;;;;;4964613;28;20046;-76
2022/03/07 09:17:31;;;;;;;12.75;10.75;;;5.50;99.90;;;;;;4986892;28;20046;-75
2022/03/07 09:19:58;;;;;;;13.10;9.27;;;5.50;99.90;;;;;;4967523;28;20065;-76
2022/03/07 09:22:27;;;;;;;11.73;8.40;;;5.60;99.90;;;;;;4967601;28;20792;-76
2022/03/07 09:24:53;;;;;;;10.25;7.15;;;5.60;99.90;;;;;;4968285;28;20046;-75
2022/03/07 09:27:19;;;;;;;11.57;8.38;;;5.50;99.90;;;;;;4984789;28;20053;-76
2022/03/07 09:29:46;;;;;;;11.07;8.90;;;5.50;99.90;;;;;;4985731;28;20352;-76
2022/03/07 09:32:12;;;;;;;11.07;9.37;;;5.50;99.90;;;;;;4987683;28;20484;-76
2022/03/07 09:34:38;;;;;;;13.80;10.18;;;5.60;99.90;;;;;;4998973;28;20038;-75
2022/03/07 09:37:06;;;;;;;12.93;9.10;;;5.60;99.90;;;;;;5003028;28;20050;-76
2022/03/07 09:39:35;;;;;;;10.35;9.25;;;5.60;99.90;;;;;;4986598;28;20053;-76
2022/03/07 09:42:01;;;;;;;11.98;8.68;;;5.60;99.90;;;;;;5004028;28;20057;-76
2022/03/07 09:44:28;;;;;;;11.80;9.77;;;5.60;99.90;;;;;;4991035;28;20180;-76
2022/03/07 09:46:57;;;;;;;11.55;8.50;;;5.60;99.90;;;;;;4989030;28;20043;-76
2022/03/07 09:49:23;;;;;;;8.70;5.78;;;5.70;99.90;;;;;;4981783;28;20054;-75
2022/03/07 09:51:49;;;;;;;12.27;6.95;;;5.60;99.90;;;;;;4997066;28;20045;-76
2022/03/07 09:54:15;;;;;;;9.43;4.35;;;5.60;99.90;;;;;;4985846;28;20111;-76
2022/03/07 09:56:41;;;;;;;9.25;4.57;;;5.60;99.90;;;;;;4951536;28;20053;-76
2022/03/07 09:59:07;;;;;;;8.20;5.25;;;5.70;99.90;;;;;;4984590;28;20046;-75
2022/03/07 10:01:35;;;;;;;8.90;5.97;;;5.90;99.90;;;;;;4992885;28;20045;-75
2022/03/07 10:04:10;;;;;;;9.25;6.18;;;6.00;99.90;;;;;;5002804;28;20046;-76
2022/03/07 10:06:36;;;;;;;10.15;6.07;;;6.10;99.90;;;;;;4996549;28;20046;-76
2022/03/07 10:09:03;;;;;;;12.95;6.05;;;6.20;99.90;;;;;;4983043;28;20732;-76
2022/03/07 10:11:31;;;;;;;11.15;5.57;;;6.20;99.90;;;;;;4986148;28;20064;-75
2022/03/07 10:14:00;;;;;;;11.10;4.65;;;6.10;99.90;;;;;;5001832;28;20493;-75
2022/03/07 10:16:43;;;;;;;9.88;5.00;;;6.20;99.90;;;;;;4984830;28;20050;-75
2022/03/07 10:19:14;;;;;;;10.68;5.57;;;6.40;99.90;;;;;;4995844;28;20049;-75
2022/03/07 10:21:50;;;;;;;9.93;5.40;;;6.50;99.90;;;;;;4984038;28;20053;-75
2022/03/07 10:24:16;;;;;;;10.38;6.07;;;6.70;99.90;;;;;;4980157;28;20209;-75
2022/03/07 10:26:43;;;;;;;8.00;5.22;;;6.80;99.90;;;;;;4999839;28;20133;-75
2022/03/07 10:29:09;;;;;;;7.43;4.65;;;6.90;99.90;;;;;;4983339;28;20779;-74
2022/03/07 10:31:37;;;;;;;8.52;5.15;;;6.80;99.90;;;;;;4982486;28;20077;-75
2022/03/07 10:34:04;;;;;;;8.55;5.22;;;6.70;99.90;;;;;;4984963;28;20046;-75
2022/03/07 10:36:36;;;;;;;9.13;5.47;;;6.60;99.90;;;;;;4989655;28;20068;-75
2022/03/07 10:39:07;;;;;;;9.32;5.80;;;6.40;99.90;;;;;;4984863;28;20039;-75
2022/03/07 10:41:38;;;;;;;10.07;6.22;;;6.30;99.90;;;;;;4986949;28;20046;-75
2022/03/07 10:44:05;;;;;;;;;;;6.30;99.90;;;;;;4986125;28;20037;-75
2022/03/07 10:46:31;;;;;;;9.80;5.40;;;6.40;99.90;;;;;;4983314;28;19952;-76
2022/03/07 10:48:57;;;;;;;8.52;5.43;;;6.50;99.90;;;;;;4998650;28;20512;-75
2022/03/07 10:51:25;;;;;;;6.80;4.43;;;6.70;99.90;;;;;;5002926;28;20065;-75
2022/03/07 10:53:52;;;;;;;8.23;4.30;;;6.90;99.90;;;;;;4969101;28;20077;-79
2022/03/07 10:56:21;;;;;;;6.07;3.10;;;7.00;99.90;;;;;;4982444;28;20073;-78
2022/03/07 10:58:52;;;;;;;5.38;2.95;;;7.10;99.90;;;;;;4972186;28;20038;-79
2022/03/07 11:01:28;;;;;;;6.03;3.28;;;7.20;99.90;;;;;;4986089;28;20545;-79
2022/03/07 11:03:54;;;;;;;7.63;3.83;;;7.30;99.90;;;;;;4984494;28;20042;-80
2022/03/07 11:06:20;;;;;;;7.43;3.80;;;7.40;99.90;;;;;;4997168;28;20464;-79
2022/03/07 11:08:46;;;;;;;8.40;4.25;;;7.40;99.90;;;;;;4957739;28;20046;-80
2022/03/07 11:11:13;;;;;;;9.02;4.22;;;7.50;99.90;;;;;;4983548;28;20049;-80
2022/03/07 11:13:41;;;;;;;7.82;3.90;;;7.50;99.90;;;;;;4988609;28;20138;-79
2022/03/07 11:16:07;;;;;;;7.40;3.00;;;7.50;99.90;;;;;;4995337;28;20050;-79
2022/03/07 11:18:33;;;;;;;7.10;2.83;;;7.60;99.90;;;;;;4986370;28;20068;-79
2022/03/07 11:21:02;;;;;;;5.38;2.10;;;7.70;99.90;;;;;;4982392;28;20046;-80
2022/03/07 11:23:28;;;;;;;4.80;2.22;;;7.80;99.90;;;;;;4983715;28;20088;-79
2022/03/07 11:25:58;;;;;;;5.05;2.20;;;7.90;99.90;;;;;;4979425;28;20125;-79
2022/03/07 11:28:27;;;;;;;4.50;2.58;;;7.90;99.90;;;;;;4982386;28;20429;-80
2022/03/07 11:30:53;;;;;;;6.10;2.80;;;8.00;99.90;;;;;;5006069;28;20435;-80
2022/03/07 11:33:23;;;;;;;5.90;2.72;;;7.90;99.90;;;;;;5005047;28;20053;-80
2022/03/07 11:35:53;;;;;;;6.13;2.83;;;7.80;99.90;;;;;;4998508;28;20449;-79
2022/03/07 11:38:31;;;;;;;5.43;2.50;;;7.60;99.90;;;;;;4996121;28;20058;-75
2022/03/07 11:40:58;;;;;;;5.45;2.40;;;7.60;99.90;;;;;;5005121;28;20038;-79
2022/03/07 11:43:27;;;;;;;6.72;2.20;;;7.70;99.90;;;;;;5005272;28;20050;-79
2022/03/07 11:45:54;;;;;;;4.88;2.17;;;7.80;99.90;;;;;;4989397;28;20045;-75
2022/03/07 11:48:21;;;;;;;4.97;3.30;;;7.90;99.90;;;;;;4951157;28;20064;-75
2022/03/07 11:50:47;;;;;;;6.28;2.60;;;8.00;99.90;;;;;;5003413;28;20065;-75
2022/03/07 11:53:14;;;;;;;4.65;2.00;;;7.90;99.90;;;;;;4995714;28;20042;-76
2022/03/07 11:55:50;;;;;;;5.28;2.17;;;7.70;98.50;;;;;;4990882;28;20046;-76
2022/03/07 11:58:32;;;;;;;5.82;2.53;;;7.70;97.90;;;;;;4995880;28;20112;-74
2022/03/07 12:01:11;;;;;;;5.65;2.10;;;7.70;98.00;;;;;;4976219;28;20356;-75
2022/03/07 12:03:37;;;;;;;5.38;2.25;;;7.70;98.90;;;;;;4990951;28;20045;-75
2022/03/07 12:06:06;;;;;;;4.72;2.33;;;7.90;99.70;;;;;;5000192;28;20054;-75
2022/03/07 12:08:49;;;;;;;5.00;2.33;;;8.00;99.20;;;;;;4997802;28;20654;-76
2022/03/07 12:11:32;;;;;;;4.30;1.80;;;8.10;99.00;;;;;;4984534;28;20049;-77
2022/03/07 12:14:05;;;;;;;6.00;2.22;;;8.20;97.50;;;;;;5005054;28;20061;-77
2022/03/07 12:16:42;;;;;;;4.47;2.05;;;8.10;96.90;;;;;;4981826;28;20057;-77
2022/03/07 12:19:10;;;;;;;4.68;1.80;;;8.10;96.20;;;;;;4973084;28;20050;-77
2022/03/07 12:21:38;;;;;;;4.10;1.15;;;8.00;96.00;;;;;;4999957;28;20160;-76
2022/03/07 12:24:08;;;;;;;5.43;1.20;;;8.10;92.50;;;;;;5005713;28;20057;-73
2022/03/07 12:26:44;;;;;;;;;;;8.20;88.30;;;;;;5004615;28;20075;-75
2022/03/07 12:29:10;;;;;;;2.35;1.38;;;8.30;84.90;;;;;;4985014;28;20012;-76
2022/03/07 12:31:36;;;;;;;3.67;1.40;;;8.40;86.40;;;;;;4969732;28;20086;-77
2022/03/07 12:34:04;;;;;;;2.35;1.20;;;8.40;87.00;;;;;;4953291;28;20480;-75
2022/03/07 12:36:30;;;;;;;2.03;0.90;;;8.50;83.00;;;;;;4967963;28;20054;-74
2022/03/07 12:38:59;;;;;;;2.95;1.23;;;8.50;78.70;;;;;;4984306;28;20049;-76